| time (UTC) | temp F | wind direction | speed MPH | gust MPH | rain 1hr in | rain 24hr in | rain mn in | humidity % | barometer mb |
| 20260901071544 | 61 | 265 | 0.0 | 3.0 | 0.00 | 0.00 | 0.00 | 86 | 1005.4 |
| 20260901070044 | 61 | 307 | 3.0 | 6.0 | 0.00 | 0.00 | 0.00 | 85 | 1005.1 |
| 20260901064539 | 60 | 267 | 2.0 | 6.0 | 0.00 | 0.00 | 0.00 | 89 | 1005.0 |
| 20260901063038 | 59 | 255 | 5.0 | 7.0 | 0.00 | 0.00 | 0.00 | 93 | 1005.0 |
| 20260901061534 | 59 | 165 | 0.0 | 0.0 | 0.00 | 0.00 | 0.00 | 93 | 1004.9 |
| 20260901060034 | 57 | 165 | 0.0 | 0.0 | 0.00 | 0.00 | 0.00 | 93 | 1004.8 |
| 20260901054532 | 56 | 165 | 0.0 | 0.0 | 0.00 | 0.00 | 0.00 | 93 | 1005.0 |
| 20260901053031 | 54 | 165 | 0.0 | 0.0 | 0.00 | 0.00 | 0.00 | 93 | 1004.9 |
| 20260901051549 | 53 | 165 | 0.0 | 0.0 | 0.00 | 0.00 | 0.00 | 93 | 1004.9 |
| 20260901050030 | 53 | 165 | 0.0 | 0.0 | 0.00 | 0.00 | 0.00 | 93 | 1004.8 |
| 20260901044534 | 53 | 165 | 0.0 | 0.0 | 0.00 | 0.01 | 0.00 | 93 | 1004.8 |
| 20260901043036 | 53 | 165 | 0.0 | 0.0 | 0.00 | 0.01 | 0.00 | 93 | 1004.8 |
| 20260901041547 | 53 | 165 | 0.0 | 0.0 | 0.00 | 0.01 | 0.00 | 93 | 1004.7 |
| 20260901040026 | 53 | 165 | 0.0 | 0.0 | 0.00 | 0.01 | 0.00 | 93 | 1004.9 |
| 20260901034527 | 53 | 165 | 0.0 | 0.0 | 0.00 | 0.01 | 0.00 | 93 | 1004.9 |
| 20260901033021 | 54 | 165 | 0.0 | 0.0 | 0.00 | 0.01 | 0.00 | 93 | 1004.9 |
| 20260901031521 | 55 | 165 | 0.0 | 0.0 | 0.00 | 0.01 | 0.00 | 93 | 1004.9 |
| 20260901030020 | 55 | 165 | 0.0 | 0.0 | 0.00 | 0.01 | 0.00 | 93 | 1004.8 |
| 20260901024517 | 56 | 165 | 0.0 | 0.0 | 0.00 | 0.01 | 0.00 | 92 | 1004.8 |
| 20260901023021 | 56 | 165 | 0.0 | 0.0 | 0.00 | 0.01 | 0.00 | 92 | 1004.7 |
| 20260901021517 | 56 | 165 | 0.0 | 0.0 | 0.00 | 0.01 | 0.00 | 93 | 1004.7 |
| 20260901020014 | 56 | 209 | 0.0 | 0.0 | 0.00 | 0.01 | 0.00 | 92 | 1004.6 |
| 20260901014534 | 56 | 209 | 0.0 | 0.0 | 0.00 | 0.01 | 0.00 | 92 | 1004.6 |
| 20260901013013 | 56 | 209 | 0.0 | 0.0 | 0.00 | 0.01 | 0.00 | 92 | 1004.7 |
| 20260901011513 | 56 | 209 | 0.0 | 0.0 | 0.00 | 0.01 | 0.00 | 92 | 1004.8 |
| 20260901010011 | 57 | 209 | 0.0 | 0.0 | 0.00 | 0.01 | 0.00 | 91 | 1004.8 |
| 20260901004511 | 57 | 209 | 0.0 | 0.0 | 0.00 | 0.01 | 0.00 | 91 | 1004.9 |
| 20260901003010 | 58 | 209 | 0.0 | 0.0 | 0.00 | 0.01 | 0.00 | 91 | 1004.8 |
| 20260901001509 | 58 | 209 | 0.0 | 0.0 | 0.00 | 0.01 | 0.00 | 91 | 1004.8 |
| 20260901000008 | 58 | 153 | 0.0 | 0.0 | 0.00 | 0.01 | 0.00 | 90 | 1004.8 |
| 20260831234508 | 59 | 153 | 0.0 | 5.0 | 0.00 | 0.01 | 0.00 | 90 | 1004.8 |
| 20260831233006 | 59 | 153 | 2.0 | 5.0 | 0.00 | 0.01 | 0.00 | 90 | 1004.9 |
| 20260831231503 | 59 | 153 | 0.0 | 0.0 | 0.00 | 0.01 | 0.00 | 90 | 1004.9 |
| 20260831230002 | 58 | 153 | 0.0 | 0.0 | 0.00 | 0.01 | 0.00 | 91 | 1005.0 |
| 20260831224558 | 58 | 153 | 0.0 | 0.0 | 0.00 | 0.01 | 0.00 | 92 | 1005.1 |
| 20260831223055 | 57 | 153 | 0.0 | 0.0 | 0.00 | 0.01 | 0.00 | 92 | 1005.1 |
| 20260831221551 | 56 | 153 | 0.0 | 0.0 | 0.00 | 0.01 | 0.00 | 92 | 1005.1 |
| 20260831220047 | 55 | 153 | 0.0 | 0.0 | 0.00 | 0.01 | 0.00 | 92 | 1005.2 |
| 20260831214549 | 55 | 153 | 0.0 | 0.0 | 0.00 | 0.01 | 0.01 | 91 | 1005.2 |
| 20260831213044 | 55 | 153 | 0.0 | 0.0 | 0.00 | 0.01 | 0.01 | 91 | 1005.1 |
| 20260831211542 | 56 | 153 | 0.0 | 0.0 | 0.00 | 0.01 | 0.01 | 90 | 1005.0 |
| 20260831210044 | 56 | 153 | 0.0 | 0.0 | 0.00 | 0.01 | 0.01 | 90 | 1004.9 |
| 20260831204539 | 57 | 153 | 0.0 | 0.0 | 0.00 | 0.01 | 0.01 | 90 | 1004.8 |
| 20260831203038 | 57 | 153 | 0.0 | 0.0 | 0.00 | 0.01 | 0.01 | 90 | 1004.8 |
| 20260831201546 | 57 | 153 | 0.0 | 0.0 | 0.00 | 0.01 | 0.01 | 89 | 1004.9 |
| 20260831200037 | 57 | 153 | 0.0 | 0.0 | 0.00 | 0.01 | 0.01 | 89 | 1004.7 |
| 20260831194537 | 57 | 153 | 0.0 | 0.0 | 0.00 | 0.01 | 0.01 | 89 | 1004.9 |
| 20260831193036 | 57 | 153 | 0.0 | 0.0 | 0.00 | 0.01 | 0.01 | 89 | 1004.9 |
| 20260831191534 | 57 | 153 | 0.0 | 0.0 | 0.00 | 0.01 | 0.01 | 88 | 1004.9 |
| 20260831190035 | 57 | 153 | 0.0 | 0.0 | 0.00 | 0.01 | 0.01 | 87 | 1004.8 |
| 20260831184530 | 58 | 153 | 0.0 | 0.0 | 0.00 | 0.01 | 0.01 | 85 | 1004.7 |
| 20260831183031 | 59 | 153 | 0.0 | 0.0 | 0.00 | 0.01 | 0.01 | 84 | 1004.9 |
| 20260831181525 | 59 | 153 | 0.0 | 0.0 | 0.00 | 0.01 | 0.01 | 84 | 1004.9 |
| 20260831180024 | 60 | 153 | 0.0 | 0.0 | 0.00 | 0.01 | 0.01 | 82 | 1004.7 |
| 20260831174522 | 61 | 196 | 0.0 | 0.0 | 0.00 | 0.01 | 0.01 | 80 | 1004.6 |
| 20260831173020 | 62 | 196 | 0.0 | 0.0 | 0.00 | 0.01 | 0.01 | 78 | 1004.6 |
| 20260831171618 | 62 | 196 | 0.0 | 0.0 | 0.00 | 0.01 | 0.01 | 76 | 1004.5 |
| 20260831170025 | 63 | 196 | 0.0 | 3.0 | 0.00 | 0.01 | 0.01 | 76 | 1004.6 |
| 20260831164520 | 63 | 196 | 0.0 | 3.0 | 0.00 | 0.01 | 0.01 | 76 | 1004.6 |
| 20260831163018 | 63 | 174 | 2.0 | 6.0 | 0.00 | 0.01 | 0.01 | 75 | 1004.6 |
| 20260831161519 | 63 | 205 | 5.0 | 8.0 | 0.00 | 0.01 | 0.01 | 75 | 1004.7 |
| 20260831160017 | 63 | 197 | 4.0 | 8.0 | 0.00 | 0.01 | 0.01 | 75 | 1004.6 |
| 20260831154515 | 63 | 200 | 5.0 | 9.0 | 0.00 | 0.01 | 0.01 | 76 | 1004.7 |
| 20260831153015 | 63 | 178 | 7.0 | 11.0 | 0.00 | 0.01 | 0.01 | 76 | 1004.6 |
| 20260831151518 | 64 | 206 | 5.0 | 9.0 | 0.00 | 0.01 | 0.01 | 75 | 1004.5 |
| 20260831150111 | 64 | 216 | 4.0 | 10.0 | 0.00 | 0.01 | 0.01 | 76 | 1004.5 |
| 20260831144510 | 64 | 224 | 3.0 | 12.0 | 0.00 | 0.01 | 0.01 | 77 | 1004.2 |
| 20260831143009 | 63 | 162 | 4.0 | 8.0 | 0.00 | 0.01 | 0.01 | 77 | 1004.4 |
| 20260831141508 | 63 | 218 | 3.0 | 13.0 | 0.00 | 0.01 | 0.01 | 76 | 1004.4 |
| 20260831140008 | 63 | 202 | 4.0 | 7.0 | 0.00 | 0.02 | 0.01 | 78 | 1004.4 |
| 20260831134511 | 63 | 219 | 9.0 | 17.0 | 0.00 | 0.02 | 0.01 | 77 | 1004.4 |
| 20260831133005 | 64 | 234 | 7.0 | 15.0 | 0.00 | 0.02 | 0.01 | 76 | 1004.4 |
| 20260831131503 | 64 | 205 | 4.0 | 12.0 | 0.00 | 0.02 | 0.01 | 78 | 1004.3 |
| 20260831130001 | 65 | 210 | 8.0 | 13.0 | 0.00 | 0.02 | 0.01 | 78 | 1004.1 |
| 20260831124606 | 65 | 219 | 7.0 | 14.0 | 0.00 | 0.02 | 0.01 | 78 | 1004.3 |
| 20260831123058 | 65 | 204 | 7.0 | 11.0 | 0.00 | 0.02 | 0.01 | 78 | 1004.0 |
| 20260831121604 | 65 | 231 | 6.0 | 14.0 | 0.00 | 0.02 | 0.01 | 79 | 1003.9 |
| 20260831120054 | 64 | 191 | 8.0 | 16.0 | 0.00 | 0.02 | 0.01 | 79 | 1003.8 |
| 20260831114554 | 64 | 222 | 8.0 | 16.0 | 0.00 | 0.02 | 0.01 | 79 | 1003.9 |
| 20260831113048 | 64 | 221 | 7.0 | 15.0 | 0.00 | 0.02 | 0.01 | 82 | 1003.7 |
| 20260831111550 | 63 | 237 | 7.0 | 14.0 | 0.00 | 0.02 | 0.01 | 84 | 1003.7 |
| 20260831110144 | 63 | 211 | 5.0 | 12.0 | 0.00 | 0.02 | 0.01 | 86 | 1003.5 |
| 20260831104544 | 62 | 253 | 7.0 | 14.0 | 0.00 | 0.02 | 0.01 | 88 | 1003.7 |
| 20260831103042 | 62 | 236 | 5.0 | 15.0 | 0.00 | 0.02 | 0.01 | 88 | 1003.6 |
| 20260831101544 | 63 | 249 | 10.0 | 14.0 | 0.00 | 0.02 | 0.01 | 85 | 1003.6 |
| 20260831100037 | 63 | 219 | 4.0 | 10.0 | 0.00 | 0.02 | 0.01 | 87 | 1003.4 |
| 20260831094540 | 63 | 223 | 9.0 | 18.0 | 0.00 | 0.02 | 0.01 | 85 | 1003.5 |
| 20260831093033 | 63 | 219 | 4.0 | 14.0 | 0.00 | 0.02 | 0.01 | 88 | 1003.2 |
| 20260831091538 | 63 | 198 | 7.0 | 11.0 | 0.00 | 0.02 | 0.01 | 87 | 1003.1 |
| 20260831090028 | 63 | 236 | 8.0 | 12.0 | 0.00 | 0.02 | 0.01 | 88 | 1002.9 |
| 20260831084525 | 62 | 209 | 6.0 | 15.0 | 0.00 | 0.02 | 0.01 | 90 | 1002.8 |
| 20260831083023 | 61 | 228 | 5.0 | 11.0 | 0.00 | 0.02 | 0.01 | 90 | 1002.6 |
| 20260831081522 | 61 | 225 | 6.0 | 10.0 | 0.00 | 0.02 | 0.01 | 90 | 1002.6 |
| 20260831080023 | 62 | 213 | 5.0 | 12.0 | 0.00 | 0.02 | 0.01 | 90 | 1002.5 |
| 20260831074518 | 62 | 232 | 6.0 | 10.0 | 0.00 | 0.02 | 0.01 | 91 | 1002.4 |
| 20260831073018 | 61 | 273 | 8.0 | 12.0 | 0.00 | 0.02 | 0.01 | 92 | 1002.3 |